sensor_id;sensor_type;location;lat;lon;timestamp;P1;durP1;ratioP1;P2;durP2;ratioP2
65651;SDS011;52350;51.546;7.002;2022-09-11T00:00:53;15.65;;;9.43;;
65651;SDS011;52350;51.546;7.002;2022-09-11T00:03:19;17.67;;;9.95;;
65651;SDS011;52350;51.546;7.002;2022-09-11T00:05:48;13.95;;;9.65;;
65651;SDS011;52350;51.546;7.002;2022-09-11T00:08:17;20.58;;;10.15;;
65651;SDS011;52350;51.546;7.002;2022-09-11T00:10:45;15.00;;;9.63;;
65651;SDS011;52350;51.546;7.002;2022-09-11T00:13:16;16.55;;;9.45;;
65651;SDS011;52350;51.546;7.002;2022-09-11T00:15:48;17.25;;;9.30;;
65651;SDS011;52350;51.546;7.002;2022-09-11T00:18:16;13.40;;;8.60;;
65651;SDS011;52350;51.546;7.002;2022-09-11T00:20:48;15.15;;;9.13;;
65651;SDS011;52350;51.546;7.002;2022-09-11T00:23:20;13.07;;;8.40;;
65651;SDS011;52350;51.546;7.002;2022-09-11T00:25:48;13.25;;;8.40;;
65651;SDS011;52350;51.546;7.002;2022-09-11T00:28:15;13.45;;;8.15;;
65651;SDS011;52350;51.546;7.002;2022-09-11T00:30:46;16.35;;;8.18;;
65651;SDS011;52350;51.546;7.002;2022-09-11T00:33:31;14.95;;;8.93;;
65651;SDS011;52350;51.546;7.002;2022-09-11T00:36:19;14.27;;;8.55;;
65651;SDS011;52350;51.546;7.002;2022-09-11T00:38:47;17.77;;;9.10;;
65651;SDS011;52350;51.546;7.002;2022-09-11T00:41:18;14.40;;;8.35;;
65651;SDS011;52350;51.546;7.002;2022-09-11T00:49:20;15.63;;;8.65;;
65651;SDS011;52350;51.546;7.002;2022-09-11T00:51:59;15.45;;;8.27;;
65651;SDS011;52350;51.546;7.002;2022-09-11T00:57:40;14.70;;;8.45;;
65651;SDS011;52350;51.546;7.002;2022-09-11T01:00:22;15.07;;;9.07;;
65651;SDS011;52350;51.546;7.002;2022-09-11T01:02:48;17.95;;;9.20;;
65651;SDS011;52350;51.546;7.002;2022-09-11T01:05:18;16.15;;;8.57;;
65651;SDS011;52350;51.546;7.002;2022-09-11T01:07:46;17.98;;;9.38;;
65651;SDS011;52350;51.546;7.002;2022-09-11T01:10:18;15.48;;;9.77;;
65651;SDS011;52350;51.546;7.002;2022-09-11T01:13:08;13.60;;;8.57;;
65651;SDS011;52350;51.546;7.002;2022-09-11T01:16:08;14.50;;;8.95;;
65651;SDS011;52350;51.546;7.002;2022-09-11T01:27:44;14.07;;;8.70;;
65651;SDS011;52350;51.546;7.002;2022-09-11T01:30:28;13.68;;;8.48;;
65651;SDS011;52350;51.546;7.002;2022-09-11T01:38:44;14.60;;;7.47;;
65651;SDS011;52350;51.546;7.002;2022-09-11T01:41:22;13.40;;;7.53;;
65651;SDS011;52350;51.546;7.002;2022-09-11T01:44:17;14.73;;;8.75;;
65651;SDS011;52350;51.546;7.002;2022-09-11T01:46:51;14.68;;;8.00;;
65651;SDS011;52350;51.546;7.002;2022-09-11T01:49:23;13.85;;;8.15;;
65651;SDS011;52350;51.546;7.002;2022-09-11T01:51:59;13.43;;;8.18;;
65651;SDS011;52350;51.546;7.002;2022-09-11T01:54:35;15.60;;;8.65;;
65651;SDS011;52350;51.546;7.002;2022-09-11T01:57:14;15.10;;;8.23;;
65651;SDS011;52350;51.546;7.002;2022-09-11T01:59:52;14.95;;;8.32;;
65651;SDS011;52350;51.546;7.002;2022-09-11T02:02:25;15.25;;;8.48;;
65651;SDS011;52350;51.546;7.002;2022-09-11T02:05:05;13.43;;;7.82;;
65651;SDS011;52350;51.546;7.002;2022-09-11T02:08:48;13.07;;;7.65;;
65651;SDS011;52350;51.546;7.002;2022-09-11T02:11:09;14.45;;;9.20;;
65651;SDS011;52350;51.546;7.002;2022-09-11T02:16:17;15.57;;;9.43;;
65651;SDS011;52350;51.546;7.002;2022-09-11T02:21:27;16.65;;;9.55;;
65651;SDS011;52350;51.546;7.002;2022-09-11T02:23:55;15.50;;;9.30;;
65651;SDS011;52350;51.546;7.002;2022-09-11T02:26:22;16.80;;;8.77;;
65651;SDS011;52350;51.546;7.002;2022-09-11T02:28:51;15.98;;;8.88;;
65651;SDS011;52350;51.546;7.002;2022-09-11T02:31:17;17.33;;;10.05;;
65651;SDS011;52350;51.546;7.002;2022-09-11T02:33:45;15.18;;;8.93;;
65651;SDS011;52350;51.546;7.002;2022-09-11T02:41:54;16.23;;;9.88;;
65651;SDS011;52350;51.546;7.002;2022-09-11T02:50:45;15.20;;;8.70;;
65651;SDS011;52350;51.546;7.002;2022-09-11T02:56:44;15.50;;;9.75;;
65651;SDS011;52350;51.546;7.002;2022-09-11T02:59:49;15.35;;;9.10;;
65651;SDS011;52350;51.546;7.002;2022-09-11T03:02:26;14.70;;;8.80;;
65651;SDS011;52350;51.546;7.002;2022-09-11T03:04:54;13.32;;;7.90;;
65651;SDS011;52350;51.546;7.002;2022-09-11T03:07:21;17.20;;;9.35;;
65651;SDS011;52350;51.546;7.002;2022-09-11T03:09:49;16.40;;;9.57;;
65651;SDS011;52350;51.546;7.002;2022-09-11T03:12:15;18.25;;;9.68;;
65651;SDS011;52350;51.546;7.002;2022-09-11T03:14:41;18.00;;;9.93;;
65651;SDS011;52350;51.546;7.002;2022-09-11T03:17:07;18.30;;;9.95;;
65651;SDS011;52350;51.546;7.002;2022-09-11T03:19:34;16.85;;;9.05;;
65651;SDS011;52350;51.546;7.002;2022-09-11T03:21:59;19.77;;;11.45;;
65651;SDS011;52350;51.546;7.002;2022-09-11T03:24:27;18.30;;;10.63;;
65651;SDS011;52350;51.546;7.002;2022-09-11T03:26:52;21.30;;;10.57;;
65651;SDS011;52350;51.546;7.002;2022-09-11T03:29:18;20.83;;;10.05;;
65651;SDS011;52350;51.546;7.002;2022-09-11T03:31:44;21.45;;;10.70;;
65651;SDS011;52350;51.546;7.002;2022-09-11T03:34:13;19.90;;;11.10;;
65651;SDS011;52350;51.546;7.002;2022-09-11T03:36:38;21.70;;;11.27;;
65651;SDS011;52350;51.546;7.002;2022-09-11T03:39:04;21.92;;;11.63;;
65651;SDS011;52350;51.546;7.002;2022-09-11T03:41:30;22.15;;;11.82;;
65651;SDS011;52350;51.546;7.002;2022-09-11T03:43:56;23.45;;;11.85;;
65651;SDS011;52350;51.546;7.002;2022-09-11T03:46:22;23.50;;;12.68;;
65651;SDS011;52350;51.546;7.002;2022-09-11T03:48:48;21.33;;;12.57;;
65651;SDS011;52350;51.546;7.002;2022-09-11T03:51:14;31.05;;;16.52;;
65651;SDS011;52350;51.546;7.002;2022-09-11T03:53:40;29.92;;;15.32;;
65651;SDS011;52350;51.546;7.002;2022-09-11T03:56:06;31.08;;;16.10;;
65651;SDS011;52350;51.546;7.002;2022-09-11T03:58:32;33.33;;;16.95;;
65651;SDS011;52350;51.546;7.002;2022-09-11T04:00:57;28.23;;;14.50;;
65651;SDS011;52350;51.546;7.002;2022-09-11T04:03:23;30.52;;;17.20;;
65651;SDS011;52350;51.546;7.002;2022-09-11T04:05:56;30.05;;;16.17;;
65651;SDS011;52350;51.546;7.002;2022-09-11T04:08:25;34.45;;;16.17;;
65651;SDS011;52350;51.546;7.002;2022-09-11T04:10:59;32.55;;;15.88;;
65651;SDS011;52350;51.546;7.002;2022-09-11T04:13:31;31.40;;;15.57;;
65651;SDS011;52350;51.546;7.002;2022-09-11T04:16:00;28.63;;;14.70;;
65651;SDS011;52350;51.546;7.002;2022-09-11T04:18:29;34.42;;;16.33;;
65651;SDS011;52350;51.546;7.002;2022-09-11T04:23:32;32.50;;;16.23;;
65651;SDS011;52350;51.546;7.002;2022-09-11T04:25:58;33.30;;;16.73;;
65651;SDS011;52350;51.546;7.002;2022-09-11T04:28:28;33.30;;;15.18;;
65651;SDS011;52350;51.546;7.002;2022-09-11T04:31:00;26.27;;;14.48;;
65651;SDS011;52350;51.546;7.002;2022-09-11T04:33:27;30.50;;;15.68;;
65651;SDS011;52350;51.546;7.002;2022-09-11T04:35:53;33.50;;;16.67;;
65651;SDS011;52350;51.546;7.002;2022-09-11T04:38:18;30.30;;;16.65;;
65651;SDS011;52350;51.546;7.002;2022-09-11T04:40:45;36.08;;;15.70;;
65651;SDS011;52350;51.546;7.002;2022-09-11T04:43:10;32.97;;;16.75;;
65651;SDS011;52350;51.546;7.002;2022-09-11T04:45:36;31.33;;;16.20;;
65651;SDS011;52350;51.546;7.002;2022-09-11T04:48:04;28.98;;;16.17;;
65651;SDS011;52350;51.546;7.002;2022-09-11T04:50:30;31.05;;;15.60;;
65651;SDS011;52350;51.546;7.002;2022-09-11T04:52:56;32.08;;;16.92;;
65651;SDS011;52350;51.546;7.002;2022-09-11T04:55:22;32.97;;;16.90;;
65651;SDS011;52350;51.546;7.002;2022-09-11T04:57:49;33.92;;;16.92;;
65651;SDS011;52350;51.546;7.002;2022-09-11T05:00:15;35.92;;;17.75;;
65651;SDS011;52350;51.546;7.002;2022-09-11T05:02:41;30.13;;;14.90;;
65651;SDS011;52350;51.546;7.002;2022-09-11T05:05:06;26.23;;;14.30;;
65651;SDS011;52350;51.546;7.002;2022-09-11T05:07:33;30.50;;;16.05;;
65651;SDS011;52350;51.546;7.002;2022-09-11T05:10:00;32.03;;;16.75;;
65651;SDS011;52350;51.546;7.002;2022-09-11T05:12:27;31.80;;;16.83;;
65651;SDS011;52350;51.546;7.002;2022-09-11T05:14:55;29.80;;;16.45;;
65651;SDS011;52350;51.546;7.002;2022-09-11T05:17:21;29.45;;;15.25;;
65651;SDS011;52350;51.546;7.002;2022-09-11T05:19:47;33.72;;;16.50;;
65651;SDS011;52350;51.546;7.002;2022-09-11T05:22:13;35.55;;;17.92;;
65651;SDS011;52350;51.546;7.002;2022-09-11T05:24:39;36.50;;;18.33;;
65651;SDS011;52350;51.546;7.002;2022-09-11T05:27:05;34.80;;;17.52;;
65651;SDS011;52350;51.546;7.002;2022-09-11T05:29:32;37.15;;;17.90;;
65651;SDS011;52350;51.546;7.002;2022-09-11T05:31:57;38.60;;;17.67;;
65651;SDS011;52350;51.546;7.002;2022-09-11T05:34:24;41.95;;;18.83;;
65651;SDS011;52350;51.546;7.002;2022-09-11T05:36:52;36.67;;;17.55;;
65651;SDS011;52350;51.546;7.002;2022-09-11T05:39:21;42.88;;;19.80;;
65651;SDS011;52350;51.546;7.002;2022-09-11T05:41:51;53.63;;;20.20;;
65651;SDS011;52350;51.546;7.002;2022-09-11T05:44:19;44.15;;;20.08;;
65651;SDS011;52350;51.546;7.002;2022-09-11T05:46:44;36.85;;;17.95;;
65651;SDS011;52350;51.546;7.002;2022-09-11T05:49:10;45.33;;;19.55;;
65651;SDS011;52350;51.546;7.002;2022-09-11T05:51:37;48.85;;;20.85;;
65651;SDS011;52350;51.546;7.002;2022-09-11T05:54:05;42.63;;;18.45;;
65651;SDS011;52350;51.546;7.002;2022-09-11T05:56:32;43.80;;;18.73;;
65651;SDS011;52350;51.546;7.002;2022-09-11T05:58:57;59.10;;;22.35;;
65651;SDS011;52350;51.546;7.002;2022-09-11T06:01:26;57.53;;;22.88;;
65651;SDS011;52350;51.546;7.002;2022-09-11T06:03:52;47.15;;;19.88;;
65651;SDS011;52350;51.546;7.002;2022-09-11T06:06:19;46.22;;;19.75;;
65651;SDS011;52350;51.546;7.002;2022-09-11T06:08:47;59.83;;;22.13;;
65651;SDS011;52350;51.546;7.002;2022-09-11T06:11:15;57.05;;;21.70;;
65651;SDS011;52350;51.546;7.002;2022-09-11T06:13:44;56.88;;;21.70;;
65651;SDS011;52350;51.546;7.002;2022-09-11T06:16:12;52.88;;;22.25;;
65651;SDS011;52350;51.546;7.002;2022-09-11T06:18:41;50.13;;;22.20;;
65651;SDS011;52350;51.546;7.002;2022-09-11T06:21:09;59.58;;;22.05;;
65651;SDS011;52350;51.546;7.002;2022-09-11T06:23:37;56.50;;;21.98;;
65651;SDS011;52350;51.546;7.002;2022-09-11T06:26:15;53.03;;;22.20;;
65651;SDS011;52350;51.546;7.002;2022-09-11T06:28:45;49.30;;;20.85;;
65651;SDS011;52350;51.546;7.002;2022-09-11T06:31:12;45.45;;;19.55;;
65651;SDS011;52350;51.546;7.002;2022-09-11T06:33:40;45.30;;;20.27;;
65651;SDS011;52350;51.546;7.002;2022-09-11T06:36:09;39.53;;;18.70;;
65651;SDS011;52350;51.546;7.002;2022-09-11T06:38:50;38.63;;;19.30;;
65651;SDS011;52350;51.546;7.002;2022-09-11T06:41:19;39.13;;;19.02;;
65651;SDS011;52350;51.546;7.002;2022-09-11T06:43:45;35.08;;;17.52;;
65651;SDS011;52350;51.546;7.002;2022-09-11T06:46:12;39.08;;;18.48;;
65651;SDS011;52350;51.546;7.002;2022-09-11T06:48:44;35.58;;;16.90;;
65651;SDS011;52350;51.546;7.002;2022-09-11T06:51:16;44.83;;;19.20;;
65651;SDS011;52350;51.546;7.002;2022-09-11T06:53:53;41.47;;;17.75;;
65651;SDS011;52350;51.546;7.002;2022-09-11T06:56:22;38.35;;;18.83;;
65651;SDS011;52350;51.546;7.002;2022-09-11T06:58:48;40.78;;;17.70;;
65651;SDS011;52350;51.546;7.002;2022-09-11T07:01:17;37.53;;;17.35;;
65651;SDS011;52350;51.546;7.002;2022-09-11T07:03:45;33.25;;;15.68;;
65651;SDS011;52350;51.546;7.002;2022-09-11T07:06:16;33.33;;;16.60;;
65651;SDS011;52350;51.546;7.002;2022-09-11T07:08:54;51.83;;;19.73;;
65651;SDS011;52350;51.546;7.002;2022-09-11T07:11:27;45.42;;;18.90;;
65651;SDS011;52350;51.546;7.002;2022-09-11T07:13:56;42.67;;;18.40;;
65651;SDS011;52350;51.546;7.002;2022-09-11T07:16:23;40.88;;;16.75;;
65651;SDS011;52350;51.546;7.002;2022-09-11T07:18:49;40.03;;;18.20;;
65651;SDS011;52350;51.546;7.002;2022-09-11T07:21:19;34.00;;;16.67;;
65651;SDS011;52350;51.546;7.002;2022-09-11T07:23:49;27.77;;;15.48;;
65651;SDS011;52350;51.546;7.002;2022-09-11T07:26:20;28.38;;;14.95;;
65651;SDS011;52350;51.546;7.002;2022-09-11T07:28:48;31.73;;;16.13;;
65651;SDS011;52350;51.546;7.002;2022-09-11T07:31:20;32.63;;;16.83;;
65651;SDS011;52350;51.546;7.002;2022-09-11T07:33:49;30.30;;;13.88;;
65651;SDS011;52350;51.546;7.002;2022-09-11T07:36:18;33.78;;;15.98;;
65651;SDS011;52350;51.546;7.002;2022-09-11T07:41:15;29.42;;;16.27;;
65651;SDS011;52350;51.546;7.002;2022-09-11T07:43:43;32.80;;;16.40;;
65651;SDS011;52350;51.546;7.002;2022-09-11T07:46:10;34.08;;;16.58;;
65651;SDS011;52350;51.546;7.002;2022-09-11T07:48:37;31.88;;;16.02;;
65651;SDS011;52350;51.546;7.002;2022-09-11T07:51:06;28.20;;;15.23;;
65651;SDS011;52350;51.546;7.002;2022-09-11T07:53:35;32.17;;;16.45;;
65651;SDS011;52350;51.546;7.002;2022-09-11T07:56:04;30.10;;;15.63;;
65651;SDS011;52350;51.546;7.002;2022-09-11T07:58:34;29.08;;;16.00;;
65651;SDS011;52350;51.546;7.002;2022-09-11T08:01:02;27.10;;;15.63;;
65651;SDS011;52350;51.546;7.002;2022-09-11T08:03:33;27.92;;;15.15;;
65651;SDS011;52350;51.546;7.002;2022-09-11T08:06:00;27.90;;;14.73;;
65651;SDS011;52350;51.546;7.002;2022-09-11T08:08:34;25.50;;;14.40;;
65651;SDS011;52350;51.546;7.002;2022-09-11T08:11:05;24.15;;;13.38;;
65651;SDS011;52350;51.546;7.002;2022-09-11T08:13:34;25.10;;;14.50;;
65651;SDS011;52350;51.546;7.002;2022-09-11T08:16:01;22.30;;;12.15;;
65651;SDS011;52350;51.546;7.002;2022-09-11T08:18:27;25.85;;;13.32;;
65651;SDS011;52350;51.546;7.002;2022-09-11T08:20:59;26.27;;;13.30;;
65651;SDS011;52350;51.546;7.002;2022-09-11T08:23:29;25.42;;;13.57;;
65651;SDS011;52350;51.546;7.002;2022-09-11T08:26:06;26.02;;;13.93;;
65651;SDS011;52350;51.546;7.002;2022-09-11T08:31:04;23.88;;;12.15;;
65651;SDS011;52350;51.546;7.002;2022-09-11T08:33:31;24.40;;;12.80;;
65651;SDS011;52350;51.546;7.002;2022-09-11T08:35:57;28.23;;;13.52;;
65651;SDS011;52350;51.546;7.002;2022-09-11T08:38:24;30.88;;;14.55;;
65651;SDS011;52350;51.546;7.002;2022-09-11T08:40:51;32.30;;;14.20;;
65651;SDS011;52350;51.546;7.002;2022-09-11T08:43:26;27.92;;;14.30;;
65651;SDS011;52350;51.546;7.002;2022-09-11T08:46:00;32.13;;;15.65;;
65651;SDS011;52350;51.546;7.002;2022-09-11T08:48:33;33.60;;;15.75;;
65651;SDS011;52350;51.546;7.002;2022-09-11T08:51:11;33.72;;;17.33;;
65651;SDS011;52350;51.546;7.002;2022-09-11T08:56:09;43.42;;;18.02;;
65651;SDS011;52350;51.546;7.002;2022-09-11T09:16:54;52.10;;;20.05;;
65651;SDS011;52350;51.546;7.002;2022-09-11T09:19:49;83.90;;;27.40;;
65651;SDS011;52350;51.546;7.002;2022-09-11T09:22:48;81.40;;;28.30;;
65651;SDS011;52350;51.546;7.002;2022-09-11T09:25:32;63.97;;;27.05;;
65651;SDS011;52350;51.546;7.002;2022-09-11T09:28:15;69.55;;;27.45;;
65651;SDS011;52350;51.546;7.002;2022-09-11T09:31:04;66.80;;;26.15;;
65651;SDS011;52350;51.546;7.002;2022-09-11T09:33:40;70.93;;;27.52;;
65651;SDS011;52350;51.546;7.002;2022-09-11T09:36:18;56.63;;;24.02;;
65651;SDS011;52350;51.546;7.002;2022-09-11T09:38:53;47.22;;;21.55;;
65651;SDS011;52350;51.546;7.002;2022-09-11T09:46:48;35.40;;;18.38;;
65651;SDS011;52350;51.546;7.002;2022-09-11T09:49:25;44.10;;;20.20;;
65651;SDS011;52350;51.546;7.002;2022-09-11T09:51:54;36.78;;;19.25;;
65651;SDS011;52350;51.546;7.002;2022-09-11T09:54:27;33.30;;;17.45;;
65651;SDS011;52350;51.546;7.002;2022-09-11T09:56:59;56.45;;;24.30;;
65651;SDS011;52350;51.546;7.002;2022-09-11T09:59:32;50.78;;;24.75;;
65651;SDS011;52350;51.546;7.002;2022-09-11T10:02:04;56.65;;;27.58;;
65651;SDS011;52350;51.546;7.002;2022-09-11T10:04:31;51.45;;;24.27;;
65651;SDS011;52350;51.546;7.002;2022-09-11T10:07:06;53.47;;;26.17;;
65651;SDS011;52350;51.546;7.002;2022-09-11T10:09:46;62.15;;;28.95;;
65651;SDS011;52350;51.546;7.002;2022-09-11T10:12:21;64.65;;;29.08;;
65651;SDS011;52350;51.546;7.002;2022-09-11T10:14:52;61.20;;;27.23;;
65651;SDS011;52350;51.546;7.002;2022-09-11T10:17:30;63.40;;;27.45;;
65651;SDS011;52350;51.546;7.002;2022-09-11T10:20:12;67.95;;;29.13;;
65651;SDS011;52350;51.546;7.002;2022-09-11T10:22:47;62.55;;;27.27;;
65651;SDS011;52350;51.546;7.002;2022-09-11T10:25:24;57.35;;;25.77;;
65651;SDS011;52350;51.546;7.002;2022-09-11T10:33:33;52.55;;;26.40;;
65651;SDS011;52350;51.546;7.002;2022-09-11T10:36:05;46.40;;;26.15;;
65651;SDS011;52350;51.546;7.002;2022-09-11T10:52:02;47.45;;;25.65;;
65651;SDS011;52350;51.546;7.002;2022-09-11T10:54:46;54.88;;;26.55;;
65651;SDS011;52350;51.546;7.002;2022-09-11T10:57:27;44.22;;;24.55;;
65651;SDS011;52350;51.546;7.002;2022-09-11T11:03:10;43.67;;;23.90;;
65651;SDS011;52350;51.546;7.002;2022-09-11T11:38:26;33.83;;;16.75;;
65651;SDS011;52350;51.546;7.002;2022-09-11T11:41:12;29.98;;;17.27;;
65651;SDS011;52350;51.546;7.002;2022-09-11T11:43:45;35.83;;;19.02;;
65651;SDS011;52350;51.546;7.002;2022-09-11T11:46:18;37.42;;;19.13;;
65651;SDS011;52350;51.546;7.002;2022-09-11T11:54:31;36.17;;;18.40;;
65651;SDS011;52350;51.546;7.002;2022-09-11T11:57:11;39.17;;;19.67;;
65651;SDS011;52350;51.546;7.002;2022-09-11T12:05:16;26.30;;;15.93;;
65651;SDS011;52350;51.546;7.002;2022-09-11T12:07:48;26.35;;;15.00;;
65651;SDS011;52350;51.546;7.002;2022-09-11T12:10:25;24.30;;;13.63;;
65651;SDS011;52350;51.546;7.002;2022-09-11T12:12:58;27.23;;;14.50;;
65651;SDS011;52350;51.546;7.002;2022-09-11T12:15:32;25.58;;;13.73;;
65651;SDS011;52350;51.546;7.002;2022-09-11T12:23:06;40.65;;;20.63;;
65651;SDS011;52350;51.546;7.002;2022-09-11T12:26:13;34.55;;;17.15;;
65651;SDS011;52350;51.546;7.002;2022-09-11T12:28:46;38.92;;;18.23;;
65651;SDS011;52350;51.546;7.002;2022-09-11T12:31:14;45.45;;;22.27;;
65651;SDS011;52350;51.546;7.002;2022-09-11T12:39:17;25.45;;;14.63;;
65651;SDS011;52350;51.546;7.002;2022-09-11T12:47:25;26.63;;;15.48;;
65651;SDS011;52350;51.546;7.002;2022-09-11T12:50:11;21.95;;;13.32;;
65651;SDS011;52350;51.546;7.002;2022-09-11T12:55:20;17.20;;;10.43;;
65651;SDS011;52350;51.546;7.002;2022-09-11T12:57:58;22.92;;;14.27;;
65651;SDS011;52350;51.546;7.002;2022-09-11T13:00:38;28.17;;;15.02;;
65651;SDS011;52350;51.546;7.002;2022-09-11T13:03:17;23.65;;;13.80;;
65651;SDS011;52350;51.546;7.002;2022-09-11T13:05:57;21.80;;;14.25;;
65651;SDS011;52350;51.546;7.002;2022-09-11T13:08:30;23.58;;;15.40;;
65651;SDS011;52350;51.546;7.002;2022-09-11T13:16:57;21.52;;;13.77;;
65651;SDS011;52350;51.546;7.002;2022-09-11T13:19:32;21.60;;;13.93;;
65651;SDS011;52350;51.546;7.002;2022-09-11T13:22:01;19.00;;;12.40;;
65651;SDS011;52350;51.546;7.002;2022-09-11T13:24:46;25.08;;;15.18;;
65651;SDS011;52350;51.546;7.002;2022-09-11T13:27:14;18.27;;;12.02;;
65651;SDS011;52350;51.546;7.002;2022-09-11T13:29:50;21.58;;;14.70;;
65651;SDS011;52350;51.546;7.002;2022-09-11T13:34:48;22.50;;;13.15;;
65651;SDS011;52350;51.546;7.002;2022-09-11T13:37:39;19.92;;;12.63;;
65651;SDS011;52350;51.546;7.002;2022-09-11T13:40:30;19.33;;;12.73;;
65651;SDS011;52350;51.546;7.002;2022-09-11T13:43:05;20.25;;;13.25;;
65651;SDS011;52350;51.546;7.002;2022-09-11T13:45:31;23.45;;;13.40;;
65651;SDS011;52350;51.546;7.002;2022-09-11T13:47:57;22.08;;;13.20;;
65651;SDS011;52350;51.546;7.002;2022-09-11T13:50:23;18.55;;;12.93;;
65651;SDS011;52350;51.546;7.002;2022-09-11T13:52:50;18.20;;;11.73;;
65651;SDS011;52350;51.546;7.002;2022-09-11T13:55:21;19.13;;;12.90;;
65651;SDS011;52350;51.546;7.002;2022-09-11T14:00:34;20.08;;;11.98;;
65651;SDS011;52350;51.546;7.002;2022-09-11T14:03:05;21.05;;;13.20;;
65651;SDS011;52350;51.546;7.002;2022-09-11T14:05:47;24.27;;;13.93;;
65651;SDS011;52350;51.546;7.002;2022-09-11T14:08:33;18.45;;;11.88;;
65651;SDS011;52350;51.546;7.002;2022-09-11T14:13:45;19.38;;;11.90;;
65651;SDS011;52350;51.546;7.002;2022-09-11T14:16:23;18.48;;;11.75;;
65651;SDS011;52350;51.546;7.002;2022-09-11T14:21:43;22.10;;;11.80;;
65651;SDS011;52350;51.546;7.002;2022-09-11T14:24:28;17.90;;;10.38;;
65651;SDS011;52350;51.546;7.002;2022-09-11T14:27:01;17.05;;;10.05;;
65651;SDS011;52350;51.546;7.002;2022-09-11T14:29:53;18.77;;;11.13;;
65651;SDS011;52350;51.546;7.002;2022-09-11T14:35:03;15.80;;;9.35;;
65651;SDS011;52350;51.546;7.002;2022-09-11T14:37:33;19.27;;;12.02;;
65651;SDS011;52350;51.546;7.002;2022-09-11T14:40:13;21.63;;;12.02;;
65651;SDS011;52350;51.546;7.002;2022-09-11T14:42:41;20.55;;;11.95;;
65651;SDS011;52350;51.546;7.002;2022-09-11T14:45:19;18.40;;;11.13;;
65651;SDS011;52350;51.546;7.002;2022-09-11T14:47:48;21.58;;;11.95;;
65651;SDS011;52350;51.546;7.002;2022-09-11T14:50:15;18.77;;;10.45;;
65651;SDS011;52350;51.546;7.002;2022-09-11T14:52:40;17.63;;;11.35;;
65651;SDS011;52350;51.546;7.002;2022-09-11T14:55:15;21.85;;;10.70;;
65651;SDS011;52350;51.546;7.002;2022-09-11T14:57:43;19.60;;;11.15;;
65651;SDS011;52350;51.546;7.002;2022-09-11T15:00:12;17.92;;;10.02;;
65651;SDS011;52350;51.546;7.002;2022-09-11T15:02:43;15.75;;;9.98;;
65651;SDS011;52350;51.546;7.002;2022-09-11T15:05:17;18.00;;;10.13;;
65651;SDS011;52350;51.546;7.002;2022-09-11T15:07:46;18.75;;;10.60;;
65651;SDS011;52350;51.546;7.002;2022-09-11T15:10:13;18.02;;;11.18;;
65651;SDS011;52350;51.546;7.002;2022-09-11T15:12:39;16.05;;;10.20;;
65651;SDS011;52350;51.546;7.002;2022-09-11T15:15:06;16.40;;;10.38;;
65651;SDS011;52350;51.546;7.002;2022-09-11T15:17:33;16.83;;;10.63;;
65651;SDS011;52350;51.546;7.002;2022-09-11T15:20:00;17.00;;;10.35;;
65651;SDS011;52350;51.546;7.002;2022-09-11T15:22:31;17.37;;;9.50;;
65651;SDS011;52350;51.546;7.002;2022-09-11T15:24:57;14.63;;;8.95;;
65651;SDS011;52350;51.546;7.002;2022-09-11T15:27:23;15.93;;;9.10;;
65651;SDS011;52350;51.546;7.002;2022-09-11T15:29:49;14.98;;;8.93;;
65651;SDS011;52350;51.546;7.002;2022-09-11T15:32:15;15.75;;;10.02;;
65651;SDS011;52350;51.546;7.002;2022-09-11T15:34:41;17.17;;;9.93;;
65651;SDS011;52350;51.546;7.002;2022-09-11T15:37:08;14.27;;;8.60;;
65651;SDS011;52350;51.546;7.002;2022-09-11T15:39:34;16.77;;;9.27;;
65651;SDS011;52350;51.546;7.002;2022-09-11T15:42:01;16.90;;;9.50;;
65651;SDS011;52350;51.546;7.002;2022-09-11T15:44:27;14.70;;;9.30;;
65651;SDS011;52350;51.546;7.002;2022-09-11T15:46:54;16.65;;;9.80;;
65651;SDS011;52350;51.546;7.002;2022-09-11T15:49:22;19.23;;;9.40;;
65651;SDS011;52350;51.546;7.002;2022-09-11T15:51:52;15.05;;;9.23;;
65651;SDS011;52350;51.546;7.002;2022-09-11T15:54:18;13.98;;;8.88;;
65651;SDS011;52350;51.546;7.002;2022-09-11T15:56:45;13.02;;;8.68;;
65651;SDS011;52350;51.546;7.002;2022-09-11T15:59:13;17.65;;;9.88;;
65651;SDS011;52350;51.546;7.002;2022-09-11T16:01:39;16.92;;;10.43;;
65651;SDS011;52350;51.546;7.002;2022-09-11T16:04:10;16.23;;;9.20;;
65651;SDS011;52350;51.546;7.002;2022-09-11T16:06:43;20.00;;;10.13;;
65651;SDS011;52350;51.546;7.002;2022-09-11T16:09:12;16.67;;;9.98;;
65651;SDS011;52350;51.546;7.002;2022-09-11T16:11:44;16.88;;;8.95;;
65651;SDS011;52350;51.546;7.002;2022-09-11T16:14:21;15.88;;;8.95;;
65651;SDS011;52350;51.546;7.002;2022-09-11T16:16:51;15.43;;;8.95;;
65651;SDS011;52350;51.546;7.002;2022-09-11T16:19:18;15.18;;;8.98;;
65651;SDS011;52350;51.546;7.002;2022-09-11T16:21:47;15.88;;;9.35;;
65651;SDS011;52350;51.546;7.002;2022-09-11T16:24:14;15.00;;;8.85;;
65651;SDS011;52350;51.546;7.002;2022-09-11T16:26:41;15.05;;;8.68;;
65651;SDS011;52350;51.546;7.002;2022-09-11T16:29:08;16.63;;;9.65;;
65651;SDS011;52350;51.546;7.002;2022-09-11T16:34:04;13.02;;;8.15;;
65651;SDS011;52350;51.546;7.002;2022-09-11T16:36:30;14.20;;;8.57;;
65651;SDS011;52350;51.546;7.002;2022-09-11T16:39:05;14.48;;;8.35;;
65651;SDS011;52350;51.546;7.002;2022-09-11T16:41:36;14.77;;;9.13;;
65651;SDS011;52350;51.546;7.002;2022-09-11T16:44:02;15.18;;;8.30;;
65651;SDS011;52350;51.546;7.002;2022-09-11T16:46:31;14.98;;;9.02;;
65651;SDS011;52350;51.546;7.002;2022-09-11T16:48:57;15.98;;;9.13;;
65651;SDS011;52350;51.546;7.002;2022-09-11T16:51:24;13.55;;;8.52;;
65651;SDS011;52350;51.546;7.002;2022-09-11T16:53:50;16.42;;;8.85;;
65651;SDS011;52350;51.546;7.002;2022-09-11T16:56:20;12.65;;;8.23;;
65651;SDS011;52350;51.546;7.002;2022-09-11T16:58:48;15.60;;;8.27;;
65651;SDS011;52350;51.546;7.002;2022-09-11T17:01:20;14.70;;;8.88;;
65651;SDS011;52350;51.546;7.002;2022-09-11T17:03:50;12.90;;;8.13;;
65651;SDS011;52350;51.546;7.002;2022-09-11T17:06:21;19.15;;;8.55;;
65651;SDS011;52350;51.546;7.002;2022-09-11T17:08:52;16.15;;;8.25;;
65651;SDS011;52350;51.546;7.002;2022-09-11T17:11:19;13.90;;;8.18;;
65651;SDS011;52350;51.546;7.002;2022-09-11T17:13:46;14.82;;;7.85;;
65651;SDS011;52350;51.546;7.002;2022-09-11T17:16:14;14.38;;;8.60;;
65651;SDS011;52350;51.546;7.002;2022-09-11T17:18:53;13.25;;;8.40;;
65651;SDS011;52350;51.546;7.002;2022-09-11T17:21:21;14.02;;;8.13;;
65651;SDS011;52350;51.546;7.002;2022-09-11T17:23:48;15.77;;;8.80;;
65651;SDS011;52350;51.546;7.002;2022-09-11T17:26:16;16.52;;;8.90;;
65651;SDS011;52350;51.546;7.002;2022-09-11T17:28:43;14.32;;;9.18;;
65651;SDS011;52350;51.546;7.002;2022-09-11T17:31:11;15.20;;;9.00;;
65651;SDS011;52350;51.546;7.002;2022-09-11T17:33:38;14.63;;;8.57;;
65651;SDS011;52350;51.546;7.002;2022-09-11T17:36:06;15.15;;;8.30;;
65651;SDS011;52350;51.546;7.002;2022-09-11T17:38:34;15.60;;;9.25;;
65651;SDS011;52350;51.546;7.002;2022-09-11T17:41:02;13.95;;;8.93;;
65651;SDS011;52350;51.546;7.002;2022-09-11T17:43:31;13.30;;;8.40;;
65651;SDS011;52350;51.546;7.002;2022-09-11T17:46:30;14.73;;;9.63;;
65651;SDS011;52350;51.546;7.002;2022-09-11T17:48:49;16.95;;;9.20;;
65651;SDS011;52350;51.546;7.002;2022-09-11T17:51:15;16.25;;;9.32;;
65651;SDS011;52350;51.546;7.002;2022-09-11T17:53:49;14.10;;;9.23;;